sensor_id;sensor_type;location;lat;lon;timestamp;pressure;altitude;pressure_sealevel;temperature;humidity
39363;BME280;25088;43.238;23.110;2022-09-17T00:01:28;95465.34;;;23.86;60.20
39363;BME280;25088;43.238;23.110;2022-09-17T00:03:54;95468.16;;;23.86;60.57
39363;BME280;25088;43.238;23.110;2022-09-17T00:06:20;95462.22;;;23.88;59.97
39363;BME280;25088;43.238;23.110;2022-09-17T00:08:46;95467.50;;;23.93;59.58
39363;BME280;25088;43.238;23.110;2022-09-17T00:11:13;95463.66;;;23.82;59.83
39363;BME280;25088;43.238;23.110;2022-09-17T00:13:39;95461.25;;;23.80;59.53
39363;BME280;25088;43.238;23.110;2022-09-17T00:16:05;95462.56;;;23.67;61.97
39363;BME280;25088;43.238;23.110;2022-09-17T00:18:31;95468.09;;;23.63;62.26
39363;BME280;25088;43.238;23.110;2022-09-17T00:20:56;95467.47;;;23.54;62.13
39363;BME280;25088;43.238;23.110;2022-09-17T00:23:22;95472.94;;;23.51;62.22
39363;BME280;25088;43.238;23.110;2022-09-17T00:25:47;95472.75;;;23.59;61.67
39363;BME280;25088;43.238;23.110;2022-09-17T00:28:13;95474.16;;;23.69;61.61
39363;BME280;25088;43.238;23.110;2022-09-17T00:30:39;95466.75;;;23.77;61.45
39363;BME280;25088;43.238;23.110;2022-09-17T00:33:04;95455.69;;;23.80;61.08
39363;BME280;25088;43.238;23.110;2022-09-17T00:35:30;95454.06;;;23.79;61.14
39363;BME280;25088;43.238;23.110;2022-09-17T00:37:55;95462.81;;;23.78;60.99
39363;BME280;25088;43.238;23.110;2022-09-17T00:40:21;95456.72;;;23.72;61.37
39363;BME280;25088;43.238;23.110;2022-09-17T00:42:46;95453.28;;;23.79;61.32
39363;BME280;25088;43.238;23.110;2022-09-17T00:45:12;95454.66;;;23.69;61.98
39363;BME280;25088;43.238;23.110;2022-09-17T00:47:39;95454.22;;;23.67;61.20
39363;BME280;25088;43.238;23.110;2022-09-17T00:52:50;95457.66;;;23.25;62.88
39363;BME280;25088;43.238;23.110;2022-09-17T00:55:22;95452.78;;;23.38;62.15
39363;BME280;25088;43.238;23.110;2022-09-17T00:57:48;95449.09;;;23.34;61.91
39363;BME280;25088;43.238;23.110;2022-09-17T01:00:15;95443.16;;;23.35;63.28
39363;BME280;25088;43.238;23.110;2022-09-17T01:02:41;95438.44;;;23.20;63.87
39363;BME280;25088;43.238;23.110;2022-09-17T01:05:07;95439.94;;;23.33;62.64
39363;BME280;25088;43.238;23.110;2022-09-17T01:15:34;95421.53;;;23.29;61.86
39363;BME280;25088;43.238;23.110;2022-09-17T01:31:33;95422.66;;;23.43;60.84
39363;BME280;25088;43.238;23.110;2022-09-17T01:34:08;95434.69;;;23.47;61.93
39363;BME280;25088;43.238;23.110;2022-09-17T01:41:55;95409.06;;;23.42;60.24
39363;BME280;25088;43.238;23.110;2022-09-17T01:44:31;95416.88;;;23.33;61.57
39363;BME280;25088;43.238;23.110;2022-09-17T01:47:07;95414.47;;;23.15;61.80
39363;BME280;25088;43.238;23.110;2022-09-17T01:49:35;95411.13;;;23.26;61.61
39363;BME280;25088;43.238;23.110;2022-09-17T01:52:02;95402.50;;;23.50;60.69
39363;BME280;25088;43.238;23.110;2022-09-17T01:54:30;95399.78;;;23.54;60.96
39363;BME280;25088;43.238;23.110;2022-09-17T01:56:58;95412.34;;;23.63;59.81
39363;BME280;25088;43.238;23.110;2022-09-17T02:02:24;95399.31;;;23.67;60.50
39363;BME280;25088;43.238;23.110;2022-09-17T02:04:56;95394.00;;;23.82;59.52
39363;BME280;25088;43.238;23.110;2022-09-17T02:07:23;95385.09;;;23.95;60.19
39363;BME280;25088;43.238;23.110;2022-09-17T02:09:55;95375.44;;;23.89;58.78
39363;BME280;25088;43.238;23.110;2022-09-17T02:12:23;95356.66;;;23.86;59.62
39363;BME280;25088;43.238;23.110;2022-09-17T02:14:53;95357.56;;;23.71;59.40
39363;BME280;25088;43.238;23.110;2022-09-17T02:17:21;95346.38;;;23.67;59.38
39363;BME280;25088;43.238;23.110;2022-09-17T02:19:49;95341.59;;;23.68;58.28
39363;BME280;25088;43.238;23.110;2022-09-17T02:27:16;95326.47;;;23.69;59.50
39363;BME280;25088;43.238;23.110;2022-09-17T02:29:43;95302.22;;;23.69;56.15
39363;BME280;25088;43.238;23.110;2022-09-17T02:32:09;95291.41;;;23.87;55.75
39363;BME280;25088;43.238;23.110;2022-09-17T02:34:35;95281.22;;;23.98;53.11
39363;BME280;25088;43.238;23.110;2022-09-17T02:37:00;95272.50;;;24.27;55.24
39363;BME280;25088;43.238;23.110;2022-09-17T02:39:27;95280.72;;;24.39;55.84
39363;BME280;25088;43.238;23.110;2022-09-17T02:46:59;95282.06;;;24.48;52.68
39363;BME280;25088;43.238;23.110;2022-09-17T02:52:11;95279.59;;;24.43;51.54
39363;BME280;25088;43.238;23.110;2022-09-17T02:54:41;95266.25;;;24.60;51.98
39363;BME280;25088;43.238;23.110;2022-09-17T02:59:51;95238.22;;;24.79;52.55
39363;BME280;25088;43.238;23.110;2022-09-17T03:02:21;95239.69;;;24.69;52.78
39363;BME280;25088;43.238;23.110;2022-09-17T03:04:47;95232.03;;;24.63;50.28
39363;BME280;25088;43.238;23.110;2022-09-17T03:07:13;95222.88;;;24.66;50.68
39363;BME280;25088;43.238;23.110;2022-09-17T03:09:39;95228.06;;;24.64;51.18
39363;BME280;25088;43.238;23.110;2022-09-17T03:12:07;95218.44;;;24.61;49.00
39363;BME280;25088;43.238;23.110;2022-09-17T03:14:33;95211.56;;;24.82;48.45
39363;BME280;25088;43.238;23.110;2022-09-17T03:16:58;95216.69;;;25.10;47.62
39363;BME280;25088;43.238;23.110;2022-09-17T03:19:23;95224.44;;;25.23;47.55
39363;BME280;25088;43.238;23.110;2022-09-17T03:21:49;95217.00;;;25.38;46.10
39363;BME280;25088;43.238;23.110;2022-09-17T03:24:14;95217.25;;;25.63;45.67
39363;BME280;25088;43.238;23.110;2022-09-17T03:26:39;95209.22;;;25.58;45.28
39363;BME280;25088;43.238;23.110;2022-09-17T03:29:05;95198.66;;;25.78;44.21
39363;BME280;25088;43.238;23.110;2022-09-17T03:31:30;95180.50;;;26.06;43.43
39363;BME280;25088;43.238;23.110;2022-09-17T03:33:56;95179.44;;;26.24;42.22
39363;BME280;25088;43.238;23.110;2022-09-17T03:36:22;95178.75;;;26.42;42.25
39363;BME280;25088;43.238;23.110;2022-09-17T03:38:48;95187.16;;;26.45;42.40
39363;BME280;25088;43.238;23.110;2022-09-17T03:41:13;95176.63;;;26.24;42.53
39363;BME280;25088;43.238;23.110;2022-09-17T03:43:38;95182.13;;;26.10;42.56
39363;BME280;25088;43.238;23.110;2022-09-17T03:46:04;95181.91;;;26.40;41.37
39363;BME280;25088;43.238;23.110;2022-09-17T03:48:29;95163.53;;;26.36;41.64
39363;BME280;25088;43.238;23.110;2022-09-17T03:50:56;95163.16;;;26.41;41.62
39363;BME280;25088;43.238;23.110;2022-09-17T03:53:21;95174.78;;;26.43;41.51
39363;BME280;25088;43.238;23.110;2022-09-17T03:55:47;95174.34;;;26.41;41.46
39363;BME280;25088;43.238;23.110;2022-09-17T03:58:12;95175.53;;;26.40;41.90
39363;BME280;25088;43.238;23.110;2022-09-17T04:00:37;95189.88;;;26.35;42.38
39363;BME280;25088;43.238;23.110;2022-09-17T04:03:03;95183.91;;;26.36;42.25
39363;BME280;25088;43.238;23.110;2022-09-17T04:05:28;95176.25;;;26.29;42.33
39363;BME280;25088;43.238;23.110;2022-09-17T04:07:54;95184.66;;;26.29;42.62
39363;BME280;25088;43.238;23.110;2022-09-17T04:10:19;95188.34;;;26.41;42.26
39363;BME280;25088;43.238;23.110;2022-09-17T04:12:44;95191.34;;;26.11;42.61
39363;BME280;25088;43.238;23.110;2022-09-17T04:15:10;95183.84;;;26.29;42.71
39363;BME280;25088;43.238;23.110;2022-09-17T04:17:35;95192.28;;;26.33;42.53
39363;BME280;25088;43.238;23.110;2022-09-17T04:20:00;95193.50;;;26.39;42.76
39363;BME280;25088;43.238;23.110;2022-09-17T04:22:26;95191.41;;;26.25;42.87
39363;BME280;25088;43.238;23.110;2022-09-17T04:24:51;95184.22;;;26.24;43.22
39363;BME280;25088;43.238;23.110;2022-09-17T04:27:17;95194.22;;;26.21;43.50
39363;BME280;25088;43.238;23.110;2022-09-17T04:29:42;95200.59;;;26.25;43.26
39363;BME280;25088;43.238;23.110;2022-09-17T04:32:07;95186.91;;;26.10;44.00
39363;BME280;25088;43.238;23.110;2022-09-17T04:34:33;95191.66;;;26.02;44.27
39363;BME280;25088;43.238;23.110;2022-09-17T04:36:58;95203.22;;;26.00;44.68
39363;BME280;25088;43.238;23.110;2022-09-17T04:39:23;95209.13;;;25.88;45.32
39363;BME280;25088;43.238;23.110;2022-09-17T04:41:49;95213.41;;;25.75;45.70
39363;BME280;25088;43.238;23.110;2022-09-17T04:44:14;95228.06;;;25.65;46.36
39363;BME280;25088;43.238;23.110;2022-09-17T04:46:39;95246.94;;;25.38;46.99
39363;BME280;25088;43.238;23.110;2022-09-17T04:49:05;95223.63;;;25.23;48.28
39363;BME280;25088;43.238;23.110;2022-09-17T04:51:30;95196.34;;;25.09;49.76
39363;BME280;25088;43.238;23.110;2022-09-17T04:53:55;95214.56;;;24.39;53.71
39363;BME280;25088;43.238;23.110;2022-09-17T04:56:20;95210.91;;;24.09;57.02
39363;BME280;25088;43.238;23.110;2022-09-17T04:58:46;95228.97;;;23.50;60.36
39363;BME280;25088;43.238;23.110;2022-09-17T05:01:11;95225.03;;;23.08;63.04
39363;BME280;25088;43.238;23.110;2022-09-17T05:03:37;95225.94;;;22.77;66.24
39363;BME280;25088;43.238;23.110;2022-09-17T05:06:03;95227.91;;;22.57;66.57
39363;BME280;25088;43.238;23.110;2022-09-17T05:08:28;95223.22;;;22.42;68.82
39363;BME280;25088;43.238;23.110;2022-09-17T05:10:54;95237.09;;;22.42;70.42
39363;BME280;25088;43.238;23.110;2022-09-17T05:13:20;95243.69;;;22.34;69.53
39363;BME280;25088;43.238;23.110;2022-09-17T05:15:45;95248.19;;;22.23;70.86
39363;BME280;25088;43.238;23.110;2022-09-17T05:18:11;95253.13;;;22.29;70.37
39363;BME280;25088;43.238;23.110;2022-09-17T05:20:36;95234.22;;;22.19;69.12
39363;BME280;25088;43.238;23.110;2022-09-17T05:23:02;95197.72;;;22.21;67.66
39363;BME280;25088;43.238;23.110;2022-09-17T05:25:28;95169.13;;;22.20;70.26
39363;BME280;25088;43.238;23.110;2022-09-17T05:27:53;95189.75;;;21.87;72.82
39363;BME280;25088;43.238;23.110;2022-09-17T05:30:18;95201.06;;;21.63;70.97
39363;BME280;25088;43.238;23.110;2022-09-17T05:32:44;95203.41;;;21.77;69.89
39363;BME280;25088;43.238;23.110;2022-09-17T05:35:09;95214.34;;;21.85;68.12
39363;BME280;25088;43.238;23.110;2022-09-17T05:37:35;95216.41;;;21.73;65.75
39363;BME280;25088;43.238;23.110;2022-09-17T05:40:01;95200.34;;;21.82;67.02
39363;BME280;25088;43.238;23.110;2022-09-17T05:42:26;95196.59;;;21.74;67.81
39363;BME280;25088;43.238;23.110;2022-09-17T05:44:52;95192.94;;;21.70;65.38
39363;BME280;25088;43.238;23.110;2022-09-17T05:47:17;95186.41;;;21.78;66.13
39363;BME280;25088;43.238;23.110;2022-09-17T05:49:42;95177.78;;;21.83;65.03
39363;BME280;25088;43.238;23.110;2022-09-17T05:52:08;95186.19;;;21.87;62.94
39363;BME280;25088;43.238;23.110;2022-09-17T05:54:33;95197.66;;;21.85;62.94
39363;BME280;25088;43.238;23.110;2022-09-17T05:56:58;95251.50;;;21.97;61.91
39363;BME280;25088;43.238;23.110;2022-09-17T05:59:24;95211.66;;;21.89;62.03
39363;BME280;25088;43.238;23.110;2022-09-17T06:01:49;95235.66;;;21.97;61.58
39363;BME280;25088;43.238;23.110;2022-09-17T06:04:15;95243.53;;;21.95;61.42
39363;BME280;25088;43.238;23.110;2022-09-17T06:06:41;95237.81;;;22.19;59.78
39363;BME280;25088;43.238;23.110;2022-09-17T06:09:07;95233.28;;;22.31;58.00
39363;BME280;25088;43.238;23.110;2022-09-17T06:11:33;95236.19;;;22.54;55.66
39363;BME280;25088;43.238;23.110;2022-09-17T06:13:58;95228.06;;;22.64;55.28
39363;BME280;25088;43.238;23.110;2022-09-17T06:16:24;95216.66;;;22.69;56.30
39363;BME280;25088;43.238;23.110;2022-09-17T06:18:50;95246.81;;;22.32;59.43
39363;BME280;25088;43.238;23.110;2022-09-17T06:21:17;95269.25;;;22.08;62.88
39363;BME280;25088;43.238;23.110;2022-09-17T06:23:42;95269.47;;;21.83;63.30
39363;BME280;25088;43.238;23.110;2022-09-17T06:26:08;95243.72;;;21.86;65.80
39363;BME280;25088;43.238;23.110;2022-09-17T06:28:33;95241.50;;;21.76;63.78
39363;BME280;25088;43.238;23.110;2022-09-17T06:30:59;95271.06;;;21.68;66.04
39363;BME280;25088;43.238;23.110;2022-09-17T06:33:25;95251.38;;;21.74;66.55
39363;BME280;25088;43.238;23.110;2022-09-17T06:36:00;95266.13;;;21.62;66.06
39363;BME280;25088;43.238;23.110;2022-09-17T06:38:27;95271.41;;;21.83;66.43
39363;BME280;25088;43.238;23.110;2022-09-17T06:40:52;95279.94;;;21.74;65.80
39363;BME280;25088;43.238;23.110;2022-09-17T06:43:18;95306.81;;;21.70;66.59
39363;BME280;25088;43.238;23.110;2022-09-17T06:45:43;95308.78;;;21.70;67.40
39363;BME280;25088;43.238;23.110;2022-09-17T06:48:08;95294.16;;;21.73;66.52
39363;BME280;25088;43.238;23.110;2022-09-17T06:50:34;95284.06;;;21.64;67.56
39363;BME280;25088;43.238;23.110;2022-09-17T06:52:59;95286.63;;;21.57;70.99
39363;BME280;25088;43.238;23.110;2022-09-17T06:55:25;95275.66;;;21.33;73.73
39363;BME280;25088;43.238;23.110;2022-09-17T06:57:50;95281.06;;;21.13;76.51
39363;BME280;25088;43.238;23.110;2022-09-17T07:00:15;95287.84;;;20.88;76.36
39363;BME280;25088;43.238;23.110;2022-09-17T07:02:41;95308.31;;;20.96;78.89
39363;BME280;25088;43.238;23.110;2022-09-17T07:05:06;95307.81;;;21.06;76.47
39363;BME280;25088;43.238;23.110;2022-09-17T07:07:32;95290.41;;;21.49;77.23
39363;BME280;25088;43.238;23.110;2022-09-17T07:09:59;95261.47;;;21.50;74.93
39363;BME280;25088;43.238;23.110;2022-09-17T07:12:25;95268.03;;;21.74;71.31
39363;BME280;25088;43.238;23.110;2022-09-17T07:14:50;95279.41;;;22.16;72.26
39363;BME280;25088;43.238;23.110;2022-09-17T07:17:15;95262.00;;;22.35;70.90
39363;BME280;25088;43.238;23.110;2022-09-17T07:19:41;95255.38;;;22.59;70.03
39363;BME280;25088;43.238;23.110;2022-09-17T07:22:06;95233.50;;;22.77;67.96
39363;BME280;25088;43.238;23.110;2022-09-17T07:24:32;95232.28;;;22.93;63.74
39363;BME280;25088;43.238;23.110;2022-09-17T07:26:58;95223.25;;;23.19;61.47
39363;BME280;25088;43.238;23.110;2022-09-17T07:29:23;95224.75;;;23.36;63.95
39363;BME280;25088;43.238;23.110;2022-09-17T07:31:51;95215.78;;;23.24;63.97
39363;BME280;25088;43.238;23.110;2022-09-17T07:34:16;95237.41;;;23.11;67.60
39363;BME280;25088;43.238;23.110;2022-09-17T07:36:42;95262.13;;;23.35;66.79
39363;BME280;25088;43.238;23.110;2022-09-17T07:39:08;95282.94;;;23.41;65.36
39363;BME280;25088;43.238;23.110;2022-09-17T07:41:34;95307.97;;;23.18;68.93
39363;BME280;25088;43.238;23.110;2022-09-17T07:43:59;95348.97;;;22.51;71.31
39363;BME280;25088;43.238;23.110;2022-09-17T07:46:26;95359.47;;;23.09;68.17
39363;BME280;25088;43.238;23.110;2022-09-17T07:48:51;95337.13;;;23.44;67.93
39363;BME280;25088;43.238;23.110;2022-09-17T07:51:18;95346.47;;;23.55;66.22
39363;BME280;25088;43.238;23.110;2022-09-17T07:53:44;95339.69;;;23.14;71.27
39363;BME280;25088;43.238;23.110;2022-09-17T07:56:10;95309.06;;;23.33;60.56
39363;BME280;25088;43.238;23.110;2022-09-17T07:58:36;95306.09;;;23.45;64.63
39363;BME280;25088;43.238;23.110;2022-09-17T08:01:02;95311.69;;;23.65;62.73
39363;BME280;25088;43.238;23.110;2022-09-17T08:03:27;95316.25;;;23.77;61.21
39363;BME280;25088;43.238;23.110;2022-09-17T08:05:53;95315.72;;;24.13;61.46
39363;BME280;25088;43.238;23.110;2022-09-17T08:08:18;95302.81;;;24.51;64.82
39363;BME280;25088;43.238;23.110;2022-09-17T08:10:44;95314.53;;;24.90;61.69
39363;BME280;25088;43.238;23.110;2022-09-17T08:13:09;95318.81;;;25.07;63.36
39363;BME280;25088;43.238;23.110;2022-09-17T08:15:34;95308.88;;;24.83;57.93
39363;BME280;25088;43.238;23.110;2022-09-17T08:18:00;95310.28;;;24.43;55.90
39363;BME280;25088;43.238;23.110;2022-09-17T08:20:25;95300.00;;;24.51;51.34
39363;BME280;25088;43.238;23.110;2022-09-17T08:22:56;95302.91;;;24.85;51.97
39363;BME280;25088;43.238;23.110;2022-09-17T08:25:21;95320.66;;;24.99;53.10
39363;BME280;25088;43.238;23.110;2022-09-17T08:27:51;95315.69;;;25.16;52.22
39363;BME280;25088;43.238;23.110;2022-09-17T08:30:16;95314.88;;;25.45;52.78
39363;BME280;25088;43.238;23.110;2022-09-17T08:32:42;95319.41;;;25.23;53.71
39363;BME280;25088;43.238;23.110;2022-09-17T08:35:07;95316.53;;;25.16;50.43
39363;BME280;25088;43.238;23.110;2022-09-17T08:37:32;95339.63;;;25.13;51.94
39363;BME280;25088;43.238;23.110;2022-09-17T08:39:59;95346.34;;;25.09;51.96
39363;BME280;25088;43.238;23.110;2022-09-17T08:42:50;95351.50;;;25.37;51.63
39363;BME280;25088;43.238;23.110;2022-09-17T08:45:14;95359.25;;;25.20;52.90
39363;BME280;25088;43.238;23.110;2022-09-17T08:47:43;95369.16;;;25.44;52.70
39363;BME280;25088;43.238;23.110;2022-09-17T08:50:13;95371.66;;;25.53;52.48
39363;BME280;25088;43.238;23.110;2022-09-17T09:00:32;95378.88;;;24.97;55.68
39363;BME280;25088;43.238;23.110;2022-09-17T09:06:05;95391.66;;;24.98;57.42
39363;BME280;25088;43.238;23.110;2022-09-17T09:08:36;95403.84;;;25.13;62.30
39363;BME280;25088;43.238;23.110;2022-09-17T09:11:10;95403.69;;;25.02;59.62
39363;BME280;25088;43.238;23.110;2022-09-17T09:13:39;95411.94;;;24.95;61.51
39363;BME280;25088;43.238;23.110;2022-09-17T09:16:25;95428.34;;;24.74;61.88
39363;BME280;25088;43.238;23.110;2022-09-17T09:18:54;95439.81;;;24.46;66.57
39363;BME280;25088;43.238;23.110;2022-09-17T09:21:29;95454.88;;;24.41;67.65
39363;BME280;25088;43.238;23.110;2022-09-17T09:24:00;95473.38;;;24.30;69.85
39363;BME280;25088;43.238;23.110;2022-09-17T09:33:49;95471.72;;;23.48;74.60
39363;BME280;25088;43.238;23.110;2022-09-17T09:36:15;95489.00;;;23.22;73.24
39363;BME280;25088;43.238;23.110;2022-09-17T09:38:47;95507.28;;;22.88;75.89
39363;BME280;25088;43.238;23.110;2022-09-17T09:41:19;95515.03;;;22.51;78.05
39363;BME280;25088;43.238;23.110;2022-09-17T09:44:04;95491.56;;;22.64;79.43
39363;BME280;25088;43.238;23.110;2022-09-17T09:46:49;95481.59;;;22.63;79.85
39363;BME280;25088;43.238;23.110;2022-09-17T09:54:16;95513.94;;;22.24;83.57
39363;BME280;25088;43.238;23.110;2022-09-17T09:59:15;95495.31;;;21.84;87.93
39363;BME280;25088;43.238;23.110;2022-09-17T10:01:42;95457.91;;;22.09;85.92
39363;BME280;25088;43.238;23.110;2022-09-17T10:04:19;95477.16;;;22.14;80.26
39363;BME280;25088;43.238;23.110;2022-09-17T10:06:46;95459.13;;;22.24;81.38
39363;BME280;25088;43.238;23.110;2022-09-17T10:09:13;95443.38;;;22.28;84.38
39363;BME280;25088;43.238;23.110;2022-09-17T10:11:38;95441.03;;;22.46;83.94
39363;BME280;25088;43.238;23.110;2022-09-17T10:14:23;95463.28;;;22.46;84.01
39363;BME280;25088;43.238;23.110;2022-09-17T10:16:51;95469.66;;;22.78;82.73
39363;BME280;25088;43.238;23.110;2022-09-17T10:19:34;95459.34;;;22.79;84.39
39363;BME280;25088;43.238;23.110;2022-09-17T10:22:05;95435.38;;;22.90;78.47
39363;BME280;25088;43.238;23.110;2022-09-17T10:24:42;95419.38;;;23.22;76.80
39363;BME280;25088;43.238;23.110;2022-09-17T10:27:16;95418.97;;;23.20;75.80
39363;BME280;25088;43.238;23.110;2022-09-17T10:35:32;95480.28;;;21.73;89.72
39363;BME280;25088;43.238;23.110;2022-09-17T10:37:57;95489.28;;;21.54;92.62
39363;BME280;25088;43.238;23.110;2022-09-17T10:40:24;95493.13;;;21.49;92.99
39363;BME280;25088;43.238;23.110;2022-09-17T10:43:14;95500.75;;;21.40;94.53
39363;BME280;25088;43.238;23.110;2022-09-17T10:45:39;95494.75;;;21.26;93.58
39363;BME280;25088;43.238;23.110;2022-09-17T10:48:11;95485.50;;;21.22;93.78
39363;BME280;25088;43.238;23.110;2022-09-17T10:50:38;95485.41;;;21.30;91.07
39363;BME280;25088;43.238;23.110;2022-09-17T10:53:05;95486.84;;;21.52;90.77
39363;BME280;25088;43.238;23.110;2022-09-17T10:55:49;95462.69;;;21.81;90.47
39363;BME280;25088;43.238;23.110;2022-09-17T11:03:20;95437.13;;;21.75;89.06
39363;BME280;25088;43.238;23.110;2022-09-17T11:08:23;95436.97;;;21.56;90.61
39363;BME280;25088;43.238;23.110;2022-09-17T11:16:13;95397.28;;;21.99;78.59
39363;BME280;25088;43.238;23.110;2022-09-17T11:18:47;95385.81;;;22.01;75.92
39363;BME280;25088;43.238;23.110;2022-09-17T11:21:39;95380.50;;;21.96;79.74
39363;BME280;25088;43.238;23.110;2022-09-17T11:26:33;95371.91;;;21.57;73.80
39363;BME280;25088;43.238;23.110;2022-09-17T11:29:08;95373.91;;;21.56;77.82
39363;BME280;25088;43.238;23.110;2022-09-17T11:36:58;95351.53;;;21.37;74.17
39363;BME280;25088;43.238;23.110;2022-09-17T11:41:55;95351.44;;;21.33;74.51
39363;BME280;25088;43.238;23.110;2022-09-17T11:44:26;95340.13;;;21.54;72.17
39363;BME280;25088;43.238;23.110;2022-09-17T11:51:54;95314.69;;;21.68;71.00
39363;BME280;25088;43.238;23.110;2022-09-17T11:56:50;95289.97;;;22.10;61.74
39363;BME280;25088;43.238;23.110;2022-09-17T11:59:24;95321.88;;;22.32;63.37
39363;BME280;25088;43.238;23.110;2022-09-17T12:01:55;95314.56;;;22.75;59.65
39363;BME280;25088;43.238;23.110;2022-09-17T12:06:52;95287.97;;;23.55;54.62
39363;BME280;25088;43.238;23.110;2022-09-17T12:09:22;95272.19;;;23.82;54.06
39363;BME280;25088;43.238;23.110;2022-09-17T12:11:52;95282.59;;;24.08;53.76
39363;BME280;25088;43.238;23.110;2022-09-17T12:14:22;95294.97;;;23.88;53.28
39363;BME280;25088;43.238;23.110;2022-09-17T12:16:49;95289.09;;;23.93;53.64
39363;BME280;25088;43.238;23.110;2022-09-17T12:19:33;95306.88;;;23.85;55.43
39363;BME280;25088;43.238;23.110;2022-09-17T12:22:20;95291.38;;;24.10;55.21
39363;BME280;25088;43.238;23.110;2022-09-17T12:24:45;95279.78;;;23.85;57.77
39363;BME280;25088;43.238;23.110;2022-09-17T12:30:09;95275.41;;;24.07;60.18
39363;BME280;25088;43.238;23.110;2022-09-17T12:40:43;95289.16;;;24.46;61.80
39363;BME280;25088;43.238;23.110;2022-09-17T12:45:50;95273.63;;;24.71;58.21
39363;BME280;25088;43.238;23.110;2022-09-17T12:48:23;95271.06;;;25.19;59.35
39363;BME280;25088;43.238;23.110;2022-09-17T12:51:06;95260.09;;;25.74;58.89
39363;BME280;25088;43.238;23.110;2022-09-17T12:56:16;95245.59;;;26.54;53.88
39363;BME280;25088;43.238;23.110;2022-09-17T12:58:56;95255.69;;;26.66;55.18
39363;BME280;25088;43.238;23.110;2022-09-17T13:01:41;95248.97;;;26.77;56.37
39363;BME280;25088;43.238;23.110;2022-09-17T13:04:20;95238.25;;;26.97;50.95
39363;BME280;25088;43.238;23.110;2022-09-17T13:12:12;95203.22;;;27.36;48.61
39363;BME280;25088;43.238;23.110;2022-09-17T13:20:02;95186.00;;;27.44;49.19
39363;BME280;25088;43.238;23.110;2022-09-17T13:22:29;95193.16;;;27.17;55.38
39363;BME280;25088;43.238;23.110;2022-09-17T13:25:02;95181.88;;;27.06;55.43
39363;BME280;25088;43.238;23.110;2022-09-17T13:27:28;95179.47;;;27.01;58.62
39363;BME280;25088;43.238;23.110;2022-09-17T13:34:57;95124.56;;;26.82;58.33
39363;BME280;25088;43.238;23.110;2022-09-17T13:37:22;95123.34;;;26.72;57.06
39363;BME280;25088;43.238;23.110;2022-09-17T13:39:51;95123.34;;;26.72;57.54
39363;BME280;25088;43.238;23.110;2022-09-17T13:44:49;95123.75;;;26.71;55.25
39363;BME280;25088;43.238;23.110;2022-09-17T13:49:45;95122.06;;;26.59;57.79
39363;BME280;25088;43.238;23.110;2022-09-17T13:52:12;95121.66;;;26.53;57.40
39363;BME280;25088;43.238;23.110;2022-09-17T13:54:37;95130.31;;;26.34;57.57
39363;BME280;25088;43.238;23.110;2022-09-17T13:57:10;95109.50;;;26.21;59.06
39363;BME280;25088;43.238;23.110;2022-09-17T13:59:37;95114.97;;;26.03;61.58
39363;BME280;25088;43.238;23.110;2022-09-17T14:09:52;95077.50;;;25.12;63.65
39363;BME280;25088;43.238;23.110;2022-09-17T14:15:03;95053.84;;;25.02;64.75
39363;BME280;25088;43.238;23.110;2022-09-17T14:17:48;95063.41;;;24.64;63.48
39363;BME280;25088;43.238;23.110;2022-09-17T14:20:18;95042.97;;;24.93;65.44
39363;BME280;25088;43.238;23.110;2022-09-17T14:22:45;95044.66;;;25.01;66.29
39363;BME280;25088;43.238;23.110;2022-09-17T14:25:18;95044.94;;;24.89;62.10
39363;BME280;25088;43.238;23.110;2022-09-17T14:28:21;95043.16;;;25.08;61.69
39363;BME280;25088;43.238;23.110;2022-09-17T14:30:37;95035.41;;;24.94;58.24
39363;BME280;25088;43.238;23.110;2022-09-17T14:33:05;95025.59;;;25.07;60.92
39363;BME280;25088;43.238;23.110;2022-09-17T14:35:36;95028.00;;;25.09;58.90
39363;BME280;25088;43.238;23.110;2022-09-17T14:38:10;95031.81;;;24.93;59.59
39363;BME280;25088;43.238;23.110;2022-09-17T14:40:40;95029.03;;;24.93;58.87
39363;BME280;25088;43.238;23.110;2022-09-17T14:43:09;95016.25;;;24.52;60.69
39363;BME280;25088;43.238;23.110;2022-09-17T14:45:40;95022.16;;;24.46;60.13
39363;BME280;25088;43.238;23.110;2022-09-17T14:48:16;95019.69;;;24.38;61.35
39363;BME280;25088;43.238;23.110;2022-09-17T14:50:42;95017.41;;;24.50;62.14
39363;BME280;25088;43.238;23.110;2022-09-17T14:53:13;95016.09;;;24.37;70.05
39363;BME280;25088;43.238;23.110;2022-09-17T14:55:39;95022.19;;;24.16;69.81
39363;BME280;25088;43.238;23.110;2022-09-17T14:58:18;95026.16;;;24.15;71.00
39363;BME280;25088;43.238;23.110;2022-09-17T15:00:49;95031.38;;;24.17;72.10
39363;BME280;25088;43.238;23.110;2022-09-17T15:03:22;95032.84;;;24.07;72.71
39363;BME280;25088;43.238;23.110;2022-09-17T15:05:47;95034.78;;;24.03;72.41
39363;BME280;25088;43.238;23.110;2022-09-17T15:08:16;94997.59;;;23.92;72.24
39363;BME280;25088;43.238;23.110;2022-09-17T15:13:20;95012.13;;;24.38;72.50
39363;BME280;25088;43.238;23.110;2022-09-17T15:15:51;95009.44;;;24.49;72.02
39363;BME280;25088;43.238;23.110;2022-09-17T15:18:17;95016.25;;;24.52;74.28
39363;BME280;25088;43.238;23.110;2022-09-17T15:20:42;95008.56;;;24.41;71.70
39363;BME280;25088;43.238;23.110;2022-09-17T15:23:13;95001.75;;;24.39;72.04
39363;BME280;25088;43.238;23.110;2022-09-17T15:25:41;95004.97;;;24.41;72.51
39363;BME280;25088;43.238;23.110;2022-09-17T15:31:04;95014.81;;;24.01;75.81
39363;BME280;25088;43.238;23.110;2022-09-17T15:33:30;95018.53;;;23.79;73.32
39363;BME280;25088;43.238;23.110;2022-09-17T15:36:06;95017.41;;;23.83;73.54
39363;BME280;25088;43.238;23.110;2022-09-17T15:38:33;95022.84;;;23.76;75.65
39363;BME280;25088;43.238;23.110;2022-09-17T15:43:42;95045.88;;;23.46;77.50